createdAt,value
2022-12-08T00:02:34.807Z,77.74
2022-12-08T00:06:27.907Z,77.63
2022-12-08T00:09:58.996Z,77.54
2022-12-08T00:13:27.052Z,77.60
2022-12-08T00:16:58.146Z,77.59
2022-12-08T00:20:29.463Z,77.63
2022-12-08T00:24:01.018Z,77.49
2022-12-08T00:27:31.873Z,77.48
2022-12-08T00:31:00.491Z,77.35
2022-12-08T00:34:28.045Z,77.42
2022-12-08T00:38:00.798Z,77.61
2022-12-08T00:41:47.436Z,77.60
2022-12-08T00:45:36.700Z,77.48
2022-12-08T00:49:18.957Z,77.52
2022-12-08T00:52:56.950Z,77.35
2022-12-08T00:56:25.651Z,77.45
2022-12-08T00:59:54.573Z,77.56
2022-12-08T01:03:21.927Z,77.43
2022-12-08T01:06:51.765Z,77.63
2022-12-08T01:10:18.847Z,77.62
2022-12-08T01:13:45.994Z,77.67
2022-12-08T01:17:12.980Z,77.58
2022-12-08T01:20:39.605Z,77.58
2022-12-08T01:24:07.929Z,77.54
2022-12-08T01:27:35.757Z,77.60
2022-12-08T01:31:03.271Z,77.65
2022-12-08T01:34:37.351Z,77.77
2022-12-08T01:38:04.258Z,77.77
2022-12-08T01:41:36.170Z,77.80
2022-12-08T01:45:05.801Z,77.67
2022-12-08T01:48:32.860Z,77.74
2022-12-08T01:52:04.585Z,77.85
2022-12-08T01:55:36.768Z,77.69
2022-12-08T01:59:04.964Z,77.79
2022-12-08T02:02:38.314Z,77.69
2022-12-08T02:06:06.095Z,77.80
2022-12-08T02:09:32.946Z,77.71
2022-12-08T02:13:02.326Z,77.55
2022-12-08T02:16:44.712Z,77.59
2022-12-08T02:20:32.563Z,77.56
2022-12-08T02:24:11.589Z,77.71
2022-12-08T02:27:57.392Z,77.63
2022-12-08T02:31:36.432Z,77.60
2022-12-08T02:35:10.531Z,77.51
2022-12-08T02:38:47.562Z,77.65
2022-12-08T02:42:23.865Z,77.54
2022-12-08T02:45:54.005Z,77.54
2022-12-08T02:49:20.284Z,77.45
2022-12-08T02:52:51.119Z,77.40
2022-12-08T02:56:37.250Z,77.32
2022-12-08T03:00:10.384Z,77.35
2022-12-08T03:03:44.207Z,77.27
2022-12-08T03:07:12.241Z,77.32
2022-12-08T03:10:42.967Z,77.24
2022-12-08T03:14:11.993Z,77.32
2022-12-08T03:17:42.197Z,77.30
2022-12-08T03:21:10.821Z,77.46
2022-12-08T03:24:40.360Z,77.49
2022-12-08T03:28:07.723Z,77.32
2022-12-08T03:31:40.921Z,77.29
2022-12-08T03:35:12.664Z,77.25
2022-12-08T03:38:43.333Z,77.10
2022-12-08T03:42:09.859Z,76.99
2022-12-08T03:45:36.729Z,77.14
2022-12-08T03:49:03.378Z,76.99
2022-12-08T03:52:30.172Z,77.04
2022-12-08T03:55:57.450Z,76.93
2022-12-08T03:59:23.617Z,77.08
2022-12-08T04:02:50.421Z,76.89
2022-12-08T04:06:18.576Z,76.96
2022-12-08T04:09:45.864Z,76.88
2022-12-08T04:13:12.073Z,76.74
2022-12-08T04:16:40.372Z,76.93
2022-12-08T04:20:08.002Z,76.99
2022-12-08T04:23:34.669Z,76.90
2022-12-08T04:27:01.148Z,76.86
2022-12-08T04:30:28.477Z,76.85
2022-12-08T04:33:55.119Z,76.68
2022-12-08T04:37:21.595Z,76.62
2022-12-08T04:40:48.244Z,76.74
2022-12-08T04:44:15.113Z,76.60
2022-12-08T04:47:42.126Z,76.50
2022-12-08T04:51:09.168Z,76.49
2022-12-08T04:54:37.073Z,76.37
2022-12-08T04:58:03.892Z,76.41
2022-12-08T05:01:30.733Z,76.52
2022-12-08T05:05:02.845Z,76.43
2022-12-08T05:08:30.812Z,76.51
2022-12-08T05:11:57.875Z,76.48
2022-12-08T05:15:25.951Z,76.55
2022-12-08T05:18:53.182Z,76.63
2022-12-08T05:22:19.964Z,76.65
2022-12-08T05:25:46.979Z,76.53
2022-12-08T05:29:13.815Z,76.64
2022-12-08T05:32:40.675Z,76.54
2022-12-08T05:36:08.346Z,76.46
2022-12-08T05:39:35.816Z,76.34
2022-12-08T05:43:05.678Z,76.29
2022-12-08T05:46:32.560Z,76.27
2022-12-08T05:49:59.346Z,76.34
2022-12-08T05:53:26.857Z,76.10
2022-12-08T05:56:55.571Z,76.05
2022-12-08T06:00:25.669Z,76.02
2022-12-08T06:03:52.659Z,75.96
2022-12-08T06:07:19.973Z,75.94
2022-12-08T06:10:49.902Z,76.01
2022-12-08T06:14:18.846Z,76.08
2022-12-08T06:17:45.296Z,76.02
2022-12-08T06:21:14.131Z,75.89
2022-12-08T06:24:40.755Z,75.98
2022-12-08T06:28:10.607Z,76.04
2022-12-08T06:31:37.200Z,75.99
2022-12-08T06:35:07.476Z,76.11
2022-12-08T06:38:37.103Z,76.06
2022-12-08T06:42:32.430Z,76.13
2022-12-08T06:46:01.836Z,75.93
2022-12-08T06:49:28.947Z,76.04
2022-12-08T06:53:03.145Z,75.97
2022-12-08T06:56:33.702Z,75.93
2022-12-08T07:00:00.046Z,75.72
2022-12-08T07:03:26.763Z,75.81
2022-12-08T07:06:54.175Z,75.70
2022-12-08T07:10:21.122Z,75.73
2022-12-08T07:13:47.726Z,75.72
2022-12-08T07:17:14.447Z,75.81
2022-12-08T07:20:41.525Z,75.85
2022-12-08T07:24:09.073Z,76.02
2022-12-08T07:27:36.364Z,76.18
2022-12-08T07:31:03.468Z,76.17
2022-12-08T07:34:30.115Z,76.21
2022-12-08T07:37:57.966Z,76.40
2022-12-08T07:41:26.324Z,76.43
2022-12-08T07:44:52.950Z,76.47
2022-12-08T07:48:19.868Z,76.26
2022-12-08T07:51:46.409Z,76.22
2022-12-08T07:55:13.217Z,76.33
2022-12-08T07:58:39.786Z,76.26
2022-12-08T08:02:23.457Z,76.08
2022-12-08T08:05:50.617Z,76.02
2022-12-08T08:09:16.997Z,76.23
2022-12-08T08:12:43.248Z,75.98
2022-12-08T08:16:13.788Z,76.18
2022-12-08T08:19:40.629Z,75.95
2022-12-08T08:23:07.186Z,76.21
2022-12-08T08:26:33.416Z,76.08
2022-12-08T08:30:00.366Z,76.11
2022-12-08T08:33:27.858Z,76.06
2022-12-08T08:36:54.717Z,76.30
2022-12-08T08:40:21.551Z,76.38
2022-12-08T08:43:47.893Z,76.37
2022-12-08T08:47:16.032Z,76.32
2022-12-08T08:50:42.630Z,76.45
2022-12-08T08:54:09.180Z,76.57
2022-12-08T08:57:36.125Z,76.41
2022-12-08T09:01:02.829Z,76.46
2022-12-08T09:04:30.302Z,76.46
2022-12-08T09:07:59.044Z,76.48
2022-12-08T09:11:25.992Z,76.41
2022-12-08T09:14:53.010Z,76.30
2022-12-08T09:18:19.584Z,76.28
2022-12-08T09:21:46.408Z,76.43
2022-12-08T09:25:13.586Z,76.40
2022-12-08T09:28:40.413Z,76.39
2022-12-08T09:32:07.289Z,76.40
2022-12-08T09:35:34.929Z,76.32
2022-12-08T09:39:02.505Z,76.60
2022-12-08T09:42:37.847Z,76.46
2022-12-08T09:46:06.320Z,76.49
2022-12-08T09:49:41.109Z,76.55
2022-12-08T09:53:13.052Z,76.61
2022-12-08T09:56:41.145Z,76.63
2022-12-08T10:00:13.846Z,76.75
2022-12-08T10:03:41.777Z,76.83
2022-12-08T10:07:15.646Z,76.90
2022-12-08T10:10:59.137Z,76.99
2022-12-08T10:14:33.517Z,76.97
2022-12-08T10:18:02.349Z,76.84
2022-12-08T10:21:32.540Z,76.75
2022-12-08T10:25:06.801Z,76.87
2022-12-08T10:28:38.815Z,76.81
2022-12-08T10:32:20.349Z,76.84
2022-12-08T10:35:49.506Z,76.80
2022-12-08T10:39:36.282Z,76.82
2022-12-08T10:43:03.243Z,76.82
2022-12-08T10:46:31.527Z,76.80
2022-12-08T10:50:20.345Z,76.89
2022-12-08T10:53:49.594Z,77.08
2022-12-08T10:57:25.732Z,76.91
2022-12-08T11:00:54.933Z,76.93
2022-12-08T11:04:23.419Z,77.18
2022-12-08T11:07:54.075Z,77.33
2022-12-08T11:11:27.607Z,77.25
2022-12-08T11:15:03.570Z,77.50
2022-12-08T11:18:40.727Z,77.48
2022-12-08T11:22:24.227Z,77.53
2022-12-08T11:25:53.004Z,77.70
2022-12-08T11:29:20.072Z,77.60
2022-12-08T11:32:48.996Z,77.72
2022-12-08T11:36:18.301Z,77.44
2022-12-08T11:39:53.076Z,77.49
2022-12-08T11:43:27.103Z,77.48
2022-12-08T11:46:58.741Z,77.51
2022-12-08T11:50:31.285Z,77.58
2022-12-08T11:54:17.451Z,77.54
2022-12-08T11:57:44.694Z,77.55
2022-12-08T12:01:19.957Z,77.64
2022-12-08T12:04:52.282Z,77.59
2022-12-08T12:08:36.106Z,77.82
2022-12-08T12:12:14.485Z,77.86
2022-12-08T12:16:21.291Z,77.92
2022-12-08T12:19:50.563Z,78.03
2022-12-08T12:23:22.468Z,78.07
2022-12-08T12:27:00.534Z,78.06
2022-12-08T12:30:29.144Z,78.06
2022-12-08T12:34:10.308Z,78.24
2022-12-08T12:37:43.915Z,78.18
2022-12-08T12:41:13.669Z,78.22
2022-12-08T12:44:46.607Z,78.27
2022-12-08T12:48:32.508Z,78.37
2022-12-08T12:51:59.918Z,78.26
2022-12-08T12:55:51.693Z,78.27
2022-12-08T12:59:36.381Z,78.12
2022-12-08T13:03:02.765Z,78.22
2022-12-08T13:06:39.522Z,78.02
2022-12-08T13:10:18.269Z,78.06
2022-12-08T13:13:59.400Z,78.18
2022-12-08T13:17:30.978Z,78.22
2022-12-08T13:21:05.146Z,78.18
2022-12-08T13:24:36.147Z,78.30
2022-12-08T13:28:15.061Z,78.25
2022-12-08T13:31:49.828Z,78.31
2022-12-08T13:35:18.608Z,78.46
2022-12-08T13:38:49.139Z,78.49
2022-12-08T13:42:26.232Z,78.54
2022-12-08T13:54:45.730Z,78.61
2022-12-08T13:57:32.741Z,78.54
2022-12-08T14:01:05.801Z,78.51
2022-12-08T14:08:58.006Z,78.35
2022-12-08T14:12:22.120Z,78.48
2022-12-08T14:15:48.521Z,78.25
2022-12-08T14:19:21.994Z,78.43
2022-12-08T14:22:50.478Z,78.15
2022-12-08T14:26:18.159Z,78.13
2022-12-08T14:29:47.959Z,77.97
2022-12-08T14:33:18.673Z,78.20
2022-12-08T14:36:45.833Z,78.36
2022-12-08T14:40:24.105Z,78.23
2022-12-08T14:44:02.333Z,78.35
2022-12-08T14:47:32.492Z,78.41
2022-12-08T14:51:05.597Z,78.46
2022-12-08T14:54:32.662Z,78.61
2022-12-08T14:57:58.981Z,78.80
2022-12-08T15:01:26.920Z,78.62
2022-12-08T15:05:01.232Z,78.65
2022-12-08T15:08:28.021Z,78.62
2022-12-08T15:12:03.704Z,78.71
2022-12-08T15:15:31.512Z,78.23
2022-12-08T15:19:19.271Z,78.48
2022-12-08T15:22:46.768Z,78.23
2022-12-08T15:26:23.441Z,78.31
2022-12-08T15:29:51.351Z,78.25
2022-12-08T15:33:18.074Z,78.33
2022-12-08T15:36:47.090Z,78.15
2022-12-08T15:40:19.945Z,78.25
2022-12-08T15:43:51.206Z,78.24
2022-12-08T15:47:27.015Z,78.43
2022-12-08T15:50:54.544Z,78.64
2022-12-08T15:54:20.750Z,78.38
2022-12-08T16:01:42.392Z,78.71
2022-12-08T16:05:41.020Z,78.70
2022-12-08T16:09:11.241Z,78.74
2022-12-08T16:13:55.399Z,78.73
2022-12-08T16:16:46.001Z,78.97
2022-12-08T16:20:18.569Z,78.99
2022-12-08T16:23:46.492Z,78.63
2022-12-08T16:27:59.499Z,78.56
2022-12-08T16:31:23.096Z,78.65
2022-12-08T16:34:51.487Z,78.64
2022-12-08T16:38:18.985Z,78.52
2022-12-08T16:42:04.069Z,78.46
2022-12-08T16:45:39.977Z,78.46
2022-12-08T16:49:15.785Z,78.40
2022-12-08T16:52:42.963Z,78.22
2022-12-08T16:56:17.347Z,78.41
2022-12-08T16:59:47.959Z,78.43
2022-12-08T17:03:19.945Z,78.58
2022-12-08T17:06:55.145Z,78.55
2022-12-08T17:10:31.927Z,78.56
2022-12-08T17:14:06.698Z,78.77
2022-12-08T17:17:36.259Z,78.80
2022-12-08T17:21:10.125Z,78.76
2022-12-08T17:24:39.099Z,78.58
2022-12-08T17:28:07.899Z,78.66
2022-12-08T17:31:38.362Z,78.77
2022-12-08T17:35:07.431Z,78.85
2022-12-08T17:38:42.397Z,78.73
2022-12-08T17:42:16.465Z,79.11
2022-12-08T17:45:49.077Z,78.59
2022-12-08T17:49:22.186Z,78.69
2022-12-08T17:52:51.177Z,78.62
2022-12-08T17:56:24.475Z,78.76
2022-12-08T17:59:51.697Z,78.66
2022-12-08T18:03:21.334Z,78.64
2022-12-08T18:06:49.020Z,78.70
2022-12-08T18:10:23.399Z,78.77
2022-12-08T18:13:52.703Z,78.75
2022-12-08T18:17:27.930Z,78.77
2022-12-08T18:21:05.487Z,78.96
2022-12-08T18:24:32.650Z,78.99
2022-12-08T18:28:00.696Z,78.78
2022-12-08T18:31:27.672Z,79.25
2022-12-08T18:34:56.774Z,78.96
2022-12-08T18:38:24.243Z,78.95
2022-12-08T18:41:51.401Z,79.06
2022-12-08T18:45:23.130Z,79.26
2022-12-08T18:48:52.702Z,79.30
2022-12-08T18:52:26.888Z,79.07
2022-12-08T18:55:55.717Z,79.07
2022-12-08T18:59:23.178Z,78.90
2022-12-08T19:02:51.255Z,78.69
2022-12-08T19:06:18.960Z,78.38
2022-12-08T19:09:45.798Z,78.37
2022-12-08T19:13:14.291Z,78.29
2022-12-08T19:16:40.886Z,78.44
2022-12-08T19:20:12.697Z,78.71
2022-12-08T19:23:40.842Z,78.59
2022-12-08T19:27:11.291Z,78.61
2022-12-08T19:30:39.342Z,78.71
2022-12-08T19:34:14.877Z,78.97
2022-12-08T19:37:44.792Z,79.00
2022-12-08T19:41:32.774Z,79.10
2022-12-08T19:45:06.186Z,79.13
2022-12-08T19:48:35.354Z,78.92
2022-12-08T19:52:03.458Z,78.83
2022-12-08T19:55:33.519Z,78.70
2022-12-08T19:59:01.784Z,78.80
2022-12-08T20:02:28.912Z,78.69
2022-12-08T20:05:57.344Z,78.66
2022-12-08T20:09:26.615Z,78.59
2022-12-08T20:13:20.821Z,78.52
2022-12-08T20:16:54.316Z,78.75
2022-12-08T20:20:26.567Z,78.74
2022-12-08T20:23:57.990Z,78.72
2022-12-08T20:27:25.231Z,78.90
2022-12-08T20:31:00.057Z,78.82
2022-12-08T20:34:32.710Z,79.08
2022-12-08T20:38:03.974Z,79.14
2022-12-08T20:41:36.114Z,79.05
2022-12-08T20:45:11.317Z,79.12
2022-12-08T20:48:40.932Z,79.31
2022-12-08T20:52:14.095Z,79.22
2022-12-08T20:55:44.264Z,78.98
2022-12-08T20:59:18.913Z,78.73
2022-12-08T21:02:56.328Z,78.82
2022-12-08T21:06:27.501Z,78.76
2022-12-08T21:10:01.090Z,78.63
2022-12-08T21:13:29.771Z,78.63
2022-12-08T21:16:59.718Z,78.59
2022-12-08T21:20:30.706Z,78.49
2022-12-08T21:23:57.956Z,78.55
2022-12-08T21:27:25.228Z,78.63
2022-12-08T21:30:53.040Z,78.70
2022-12-08T21:34:33.797Z,78.83
2022-12-08T21:38:09.050Z,78.71
2022-12-08T21:41:58.717Z,78.81
2022-12-08T21:45:30.586Z,78.99
2022-12-08T21:48:59.527Z,78.97
2022-12-08T21:52:28.811Z,78.96
2022-12-08T21:56:02.239Z,79.02
2022-12-08T21:59:33.149Z,78.92
2022-12-08T22:03:06.562Z,78.89
2022-12-08T22:06:40.293Z,78.97
2022-12-08T22:10:15.062Z,78.82
2022-12-08T22:13:44.121Z,78.69
2022-12-08T22:17:16.875Z,78.83
2022-12-08T22:20:50.974Z,78.41
2022-12-08T22:24:22.571Z,78.64
2022-12-08T22:27:50.134Z,78.59
2022-12-08T22:31:19.981Z,78.50
2022-12-08T22:34:49.457Z,78.71
2022-12-08T22:38:20.164Z,78.75
2022-12-08T22:41:51.565Z,78.96
2022-12-08T22:45:20.095Z,79.04
2022-12-08T22:48:49.795Z,79.02
2022-12-08T22:52:20.284Z,79.00
2022-12-08T22:55:47.586Z,79.10
2022-12-08T22:59:15.707Z,78.98
2022-12-08T23:02:45.185Z,79.22
2022-12-08T23:06:21.458Z,79.17
2022-12-08T23:09:49.190Z,79.00
2022-12-08T23:13:18.164Z,78.86
2022-12-08T23:16:48.137Z,78.87
2022-12-08T23:20:20.353Z,78.87
2022-12-08T23:23:47.623Z,78.64
2022-12-08T23:27:15.767Z,78.84
2022-12-08T23:30:44.384Z,78.55
2022-12-08T23:34:14.321Z,78.62
2022-12-08T23:37:51.240Z,78.39
2022-12-08T23:41:21.668Z,78.39
2022-12-08T23:44:50.189Z,78.39
2022-12-08T23:48:18.188Z,78.63
2022-12-08T23:51:47.032Z,78.49
2022-12-08T23:55:23.986Z,78.65
2022-12-08T23:58:51.380Z,79.01
